Time;durP1;ratioP1;P1;durP2;ratioP2;P2;SDS_P1;SDS_P2;PMS_P1;PMS_P2;Temp;Humidity;BMP_temperature;BMP_pressure;BME280_temperature;BME280_humidity;BME280_pressure;Samples;Min_cycle;Max_cycle;Signal;HPM_P1;HPM_P2
2023/04/06 00:02:31;;;;;;;8.47;7.57;;;;;;;5.80;47.03;99052.84;7094390;27;20222;-79
2023/04/06 00:05:53;;;;;;;11.10;8.50;;;;;;;5.59;48.06;99049.81;7098751;27;20230;-80
2023/04/06 00:09:14;;;;;;;8.53;7.63;;;;;;;5.53;48.02;99055.84;7085419;27;20201;-80
2023/04/06 00:12:36;;;;;;;9.70;7.87;;;;;;;5.42;48.03;99050.84;7082991;27;20204;-79
2023/04/06 00:15:58;;;;;;;9.23;7.73;;;;;;;5.57;47.84;99041.97;7083937;27;20203;-79
2023/04/06 00:19:21;;;;;;;11.33;8.13;;;;;;;5.63;47.36;99043.13;7078424;27;20378;-79
2023/04/06 00:22:43;;;;;;;8.50;7.60;;;;;;;5.81;47.29;99033.13;7082518;27;20233;-80
2023/04/06 00:26:05;;;;;;;10.27;7.93;;;;;;;5.66;47.34;99032.94;7083191;27;20226;-80
2023/04/06 00:29:27;;;;;;;9.60;7.90;;;;;;;5.50;48.55;99040.13;7081552;27;20668;-79
2023/04/06 00:32:48;;;;;;;9.83;8.00;;;;;;;5.85;47.07;99037.13;7082445;27;20257;-80
2023/04/06 00:36:11;;;;;;;12.77;8.63;;;;;;;5.47;47.96;99045.81;7083074;27;20200;-79
2023/04/06 00:39:33;;;;;;;11.47;8.17;;;;;;;5.62;47.72;99042.31;7080955;27;20256;-79
2023/04/06 00:42:54;;;;;;;9.17;8.17;;;;;;;5.80;46.97;99043.00;7082921;27;20777;-79
2023/04/06 00:46:16;;;;;;;9.63;7.53;;;;;;;5.69;47.31;99018.38;7079303;27;20231;-79
2023/04/06 00:49:38;;;;;;;7.97;7.27;;;;;;;5.69;46.88;99029.94;7063497;27;20189;-80
2023/04/06 00:53:01;;;;;;;8.03;7.33;;;;;;;5.27;47.53;99023.94;7055302;27;20600;-79
2023/04/06 00:56:23;;;;;;;8.43;7.17;;;;;;;4.73;49.66;98997.78;7053389;28;20198;-79
2023/04/06 00:59:45;;;;;;;13.40;11.00;;;;;;;5.44;48.30;99024.78;7053372;28;20295;-79
2023/04/06 01:03:06;;;;;;;9.70;8.20;;;;;;;5.43;48.32;99031.94;7054230;28;20237;-80
2023/04/06 01:06:28;;;;;;;9.37;7.90;;;;;;;5.65;46.95;99028.59;7076492;27;20252;-81
2023/04/06 01:09:51;;;;;;;9.57;8.00;;;;;;;5.37;48.22;99029.13;7082618;27;20249;-79
2023/04/06 01:13:12;;;;;;;9.43;7.80;;;;;;;5.27;48.59;99025.75;7055512;28;20754;-80
2023/04/06 01:16:34;;;;;;;13.47;8.77;;;;;;;5.12;49.30;99030.13;7071881;27;20199;-79
2023/04/06 01:19:56;;;;;;;12.93;9.67;;;;;;;4.82;49.74;99014.69;7082315;27;20625;-80
2023/04/06 01:23:19;;;;;;;11.67;8.80;;;;;;;4.99;49.58;99024.38;7087678;27;20216;-79
2023/04/06 01:26:41;;;;;;;15.03;10.03;;;;;;;5.26;49.15;99019.56;7078329;27;20231;-80
2023/04/06 01:30:03;;;;;;;10.13;9.10;;;;;;;5.22;48.43;99007.56;7077669;27;20204;-80
2023/04/06 01:33:25;;;;;;;11.53;8.97;;;;;;;4.69;49.33;99014.31;7078761;27;20220;-80
2023/04/06 01:36:47;;;;;;;12.13;8.63;;;;;;;4.66;50.53;99009.31;7080681;27;20680;-79
2023/04/06 01:40:11;;;;;;;10.50;8.57;;;;;;;4.97;49.85;99013.03;7080437;27;20218;-80
2023/04/06 01:43:32;;;;;;;10.50;8.80;;;;;;;4.98;49.41;99004.03;7081138;27;20303;-80
2023/04/06 01:46:54;;;;;;;11.20;8.97;;;;;;;4.76;49.47;99000.16;7080772;27;20250;-80
2023/04/06 01:50:16;;;;;;;10.03;8.37;;;;;;;4.72;49.66;99001.47;7071094;27;20216;-80
2023/04/06 01:53:37;;;;;;;11.70;8.90;;;;;;;4.38;51.13;98998.06;7051681;27;20258;-79
2023/04/06 01:57:00;;;;;;;14.80;9.50;;;;;;;4.63;50.19;99006.97;7051956;28;20208;-79
2023/04/06 02:00:22;;;;;;;10.53;9.07;;;;;;;4.49;50.66;98999.59;7056973;27;20234;-80
2023/04/06 02:03:43;;;;;;;10.97;9.07;;;;;;;4.77;49.70;98998.34;7065526;27;20257;-80
2023/04/06 02:07:05;;;;;;;9.87;8.00;;;;;;;4.56;50.35;99001.44;7050884;28;20250;-79
2023/04/06 02:10:27;;;;;;;10.50;9.23;;;;;;;4.59;50.41;99001.09;7051573;28;20206;-79
2023/04/06 02:13:50;;;;;;;13.43;10.20;;;;;;;4.35;50.04;98986.84;7051795;28;20284;-80
2023/04/06 02:17:11;;;;;;;11.73;10.23;;;;;;;4.05;51.51;99004.25;7062120;28;20230;-79
2023/04/06 02:20:33;;;;;;;12.23;8.63;;;;;;;4.49;50.40;98992.41;7051323;28;20396;-78
2023/04/06 02:23:54;;;;;;;16.63;9.17;;;;;;;4.91;49.41;98992.34;7051671;28;20230;-80
2023/04/06 02:27:16;;;;;;;9.90;8.90;;;;;;;4.83;48.83;98990.47;7051246;28;20230;-79
2023/04/06 02:30:39;;;;;;;10.87;8.60;;;;;;;5.02;48.38;99000.03;7051237;28;20216;-79
2023/04/06 02:34:01;;;;;;;10.97;9.87;;;;;;;4.78;49.02;98995.47;7055428;28;20628;-79
2023/04/06 02:37:23;;;;;;;11.77;9.47;;;;;;;5.14;48.46;98982.66;7081727;28;20203;-80
2023/04/06 02:40:45;;;;;;;11.40;10.20;;;;;;;5.04;48.84;99000.69;7097440;28;20204;-79
2023/04/06 02:44:08;;;;;;;12.70;9.10;;;;;;;5.01;48.27;98971.66;7085785;28;20698;-79
2023/04/06 02:47:31;;;;;;;10.00;9.00;;;;;;;4.91;48.54;98993.19;7086750;28;20313;-79
2023/04/06 02:50:52;;;;;;;11.37;9.43;;;;;;;4.10;50.53;98985.94;7085976;28;20217;-80
2023/04/06 02:54:14;;;;;;;11.67;9.00;;;;;;;4.46;49.70;98987.41;7085796;28;20223;-80
2023/04/06 02:57:36;;;;;;;11.77;9.20;;;;;;;4.67;49.38;98982.44;7085632;28;20210;-79
2023/04/06 03:00:57;;;;;;;9.37;8.43;;;;;;;4.21;50.46;98971.47;7082952;28;20208;-81
2023/04/06 03:04:22;;;;;;;14.70;9.67;;;;;;;3.92;50.55;98923.84;7078391;27;20227;-81
2023/04/06 03:07:44;;;;;;;12.40;9.43;;;;;;;4.62;50.44;98978.59;7063659;27;20715;-80
2023/04/06 03:11:06;;;;;;;10.60;9.17;;;;;;;4.97;49.02;98972.97;7061036;28;20628;-81
2023/04/06 03:14:28;;;;;;;9.83;8.83;;;;;;;4.99;48.78;98971.81;7061233;28;20238;-80
2023/04/06 03:17:50;;;;;;;12.80;9.77;;;;;;;4.64;49.45;98972.09;7061063;28;20202;-79
2023/04/06 03:21:14;;;;;;;10.00;8.73;;;;;;;4.79;48.89;98974.97;7061670;28;20208;-81
2023/04/06 03:24:36;;;;;;;10.60;8.90;;;;;;;4.90;48.03;98966.63;7062785;28;20228;-81
2023/04/06 03:27:58;;;;;;;10.57;9.47;;;;;;;4.72;48.21;98949.91;7065229;27;20242;-80
2023/04/06 03:31:19;;;;;;;12.43;9.40;;;;;;;4.84;47.75;98933.38;7090281;27;20201;-79
2023/04/06 03:34:41;;;;;;;11.57;9.30;;;;;;;4.77;48.65;98980.44;7090967;27;20229;-81
2023/04/06 03:38:04;;;;;;;9.67;8.67;;;;;;;4.68;48.61;98978.78;7089766;27;21140;-79
2023/04/06 03:41:26;;;;;;;11.70;10.20;;;;;;;4.42;49.21;98980.69;7090962;27;20194;-80
2023/04/06 03:44:47;;;;;;;11.80;9.43;;;;;;;4.63;48.99;98985.59;7075143;27;20226;-79
2023/04/06 03:48:09;;;;;;;10.17;8.70;;;;;;;4.73;47.80;98992.44;7064418;28;20227;-80
2023/04/06 03:51:31;;;;;;;10.53;9.10;;;;;;;4.57;48.66;99002.28;7064403;28;20221;-80
2023/04/06 03:54:54;;;;;;;10.00;8.77;;;;;;;4.77;48.73;98993.00;7065392;28;20296;-78
2023/04/06 03:58:15;;;;;;;12.13;9.10;;;;;;;4.68;48.05;98991.28;7055229;28;20225;-79
2023/04/06 04:01:37;;;;;;;13.13;9.90;;;;;;;4.35;48.84;99000.19;7055093;28;20540;-78
2023/04/06 04:04:58;;;;;;;12.20;9.67;;;;;;;4.14;49.04;98957.09;7055177;28;20258;-78
2023/04/06 04:08:20;;;;;;;11.83;9.20;;;;;;;4.22;48.70;98983.78;7055009;28;20237;-78
2023/04/06 04:11:43;;;;;;;11.40;9.93;;;;;;;3.94;50.02;98999.19;7053879;28;20202;-78
2023/04/06 04:15:06;;;;;;;12.87;9.40;;;;;;;4.08;49.99;98985.22;7054195;28;20232;-79
2023/04/06 04:18:27;;;;;;;12.33;10.23;;;;;;;4.25;49.05;99004.84;7054660;28;20205;-78
2023/04/06 04:21:49;;;;;;;11.97;9.57;;;;;;;4.24;49.46;99016.50;7053735;28;20213;-79
2023/04/06 04:25:10;;;;;;;12.10;9.77;;;;;;;3.78;50.36;98984.94;7054627;28;20244;-78
2023/04/06 04:28:33;;;;;;;11.53;10.07;;;;;;;4.08;49.80;98979.91;7069005;28;20232;-78
2023/04/06 04:31:55;;;;;;;11.70;9.37;;;;;;;4.30;49.19;99006.00;7054287;27;20213;-78
2023/04/06 04:35:17;;;;;;;10.67;8.73;;;;;;;4.06;50.30;99016.59;7081998;27;20224;-78
2023/04/06 04:38:38;;;;;;;13.57;8.77;;;;;;;3.93;49.83;99000.19;7082560;27;20651;-78
2023/04/06 04:42:00;;;;;;;10.50;8.73;;;;;;;4.08;50.14;99021.75;7081605;27;20209;-78
2023/04/06 04:45:23;;;;;;;11.03;9.37;;;;;;;4.31;49.72;99006.88;7083456;27;20229;-79
2023/04/06 04:48:44;;;;;;;10.23;9.13;;;;;;;4.13;50.08;99012.28;7076471;27;20712;-78
2023/04/06 04:52:06;;;;;;;12.20;9.47;;;;;;;4.26;49.87;99009.19;7077143;27;20228;-78
2023/04/06 04:55:29;;;;;;;16.30;10.17;;;;;;;4.46;49.18;99018.59;7082169;27;20231;-78
2023/04/06 04:58:50;;;;;;;12.67;9.17;;;;;;;4.29;49.39;99023.03;7067993;27;20648;-78
2023/04/06 05:02:13;;;;;;;10.63;8.93;;;;;;;3.99;50.30;99020.88;7076534;27;20205;-78
2023/04/06 05:05:35;;;;;;;10.77;9.17;;;;;;;4.28;49.70;99023.19;7078053;27;20229;-78
2023/04/06 05:08:56;;;;;;;11.33;9.13;;;;;;;4.07;50.16;99020.09;7076075;27;20663;-78
2023/04/06 05:12:19;;;;;;;12.03;9.77;;;;;;;4.10;49.68;99015.28;7079906;27;20204;-78
2023/04/06 05:15:41;;;;;;;12.90;9.00;;;;;;;4.38;48.63;98995.38;7080200;27;20228;-78
2023/04/06 05:19:03;;;;;;;12.23;9.33;;;;;;;4.71;47.69;99026.50;7079934;27;20204;-78
2023/04/06 05:22:26;;;;;;;12.70;9.07;;;;;;;4.84;47.40;99036.72;7081095;27;20236;-78
2023/04/06 05:25:47;;;;;;;12.67;9.63;;;;;;;4.28;47.96;99021.38;7089159;27;20239;-78
2023/04/06 05:29:09;;;;;;;12.70;9.70;;;;;;;4.84;47.68;99039.41;7080710;27;20223;-79
2023/04/06 05:32:30;;;;;;;18.20;11.20;;;;;;;5.12;47.45;99030.94;7055736;27;20621;-78
2023/04/06 05:35:53;;;;;;;15.17;11.40;;;;;;;5.45;46.43;99047.81;7052405;28;20267;-78
2023/04/06 05:39:15;;;;;;;13.73;10.27;;;;;;;5.21;46.83;99024.59;7052371;28;20227;-78
2023/04/06 05:42:37;;;;;;;13.80;10.37;;;;;;;5.65;46.09;99054.53;7051292;28;20217;-78
2023/04/06 05:45:59;;;;;;;10.73;9.13;;;;;;;5.71;45.46;99046.66;7052277;28;20207;-77
2023/04/06 05:49:21;;;;;;;11.70;9.77;;;;;;;5.79;45.27;99038.59;7052078;28;20228;-78
2023/04/06 05:52:46;;;;;;;13.67;10.37;;;;;;;6.21;44.70;99041.91;7051392;28;20678;-79
2023/04/06 05:56:07;;;;;;;10.53;9.43;;;;;;;6.83;43.79;99034.78;7052589;28;20344;-79
2023/04/06 05:59:31;;;;;;;10.63;9.53;;;;;;;6.94;43.23;99039.72;7053246;28;20207;-79
2023/04/06 06:02:52;;;;;;;11.00;9.57;;;;;;;6.83;44.02;99040.97;7052661;27;20220;-79
2023/04/06 06:06:14;;;;;;;12.30;10.53;;;;;;;7.25;43.25;99033.31;7054156;28;20207;-77
2023/04/06 06:09:37;;;;;;;12.10;10.20;;;;;;;7.70;42.29;99038.66;7069362;27;20229;-79
2023/04/06 06:12:58;;;;;;;11.47;9.90;;;;;;;8.37;40.85;99044.91;7061089;27;20228;-78
2023/04/06 06:16:20;;;;;;;10.70;9.53;;;;;;;8.64;40.42;99053.13;7053308;28;20211;-77
2023/04/06 06:19:42;;;;;;;10.07;9.07;;;;;;;8.67;40.49;99039.28;7052742;28;20203;-77
2023/04/06 06:23:03;;;;;;;10.67;9.57;;;;;;;8.91;39.90;99044.34;7084488;28;20224;-80
2023/04/06 06:26:27;;;;;;;10.47;9.17;;;;;;;8.74;40.30;99045.63;7088823;28;20218;-78
2023/04/06 06:29:48;;;;;;;10.60;9.50;;;;;;;9.19;40.05;99045.31;7082012;28;20226;-79
2023/04/06 06:33:10;;;;;;;12.77;9.50;;;;;;;9.57;39.27;99041.38;7085077;28;20581;-80
2023/04/06 06:36:32;;;;;;;12.17;9.57;;;;;;;10.12;38.29;99038.75;7096606;27;20210;-80
2023/04/06 06:39:54;;;;;;;10.80;9.67;;;;;;;9.97;37.56;98976.00;7100330;27;20205;-78
2023/04/06 06:43:17;;;;;;;10.77;9.10;;;;;;;10.48;37.43;99036.69;7094404;27;20234;-79
2023/04/06 06:46:38;;;;;;;10.63;9.53;;;;;;;10.27;37.44;99012.53;7066207;28;20212;-79
2023/04/06 06:50:00;;;;;;;10.47;8.80;;;;;;;10.68;37.38;99026.84;7065637;28;20227;-77
2023/04/06 06:53:22;;;;;;;10.27;9.13;;;;;;;11.26;36.40;99037.84;7097249;27;20231;-80
2023/04/06 06:56:44;;;;;;;12.70;8.87;;;;;;;11.37;36.22;99033.72;7087207;27;20645;-79
2023/04/06 07:00:08;;;;;;;9.83;8.47;;;;;;;11.40;36.60;99036.03;7059631;27;20208;-79
2023/04/06 07:03:30;;;;;;;9.83;8.13;;;;;;;11.69;35.43;98998.69;7083613;27;20227;-79
2023/04/06 07:06:52;;;;;;;11.63;8.80;;;;;;;11.91;35.13;99029.88;7084623;27;20806;-79
2023/04/06 07:10:14;;;;;;;10.87;8.40;;;;;;;12.49;33.86;99028.13;7083762;27;20756;-78
2023/04/06 07:13:35;;;;;;;10.50;8.63;;;;;;;12.13;34.45;99044.00;7084219;27;20227;-78
2023/04/06 07:16:58;;;;;;;9.80;8.80;;;;;;;12.20;34.47;99045.66;7069817;27;20701;-78
2023/04/06 07:20:20;;;;;;;12.63;8.67;;;;;;;12.51;34.45;99040.38;7055222;28;20655;-78
2023/04/06 07:23:41;;;;;;;11.07;8.73;;;;;;;12.92;33.68;99037.38;7055015;28;20223;-78
2023/04/06 07:27:03;;;;;;;13.07;8.50;;;;;;;13.27;32.57;99028.69;7055675;28;20213;-78
2023/04/06 07:30:26;;;;;;;12.83;9.13;;;;;;;13.31;32.60;99040.75;7054546;28;20228;-78
2023/04/06 07:33:49;;;;;;;10.53;8.43;;;;;;;13.97;31.56;99030.28;7053481;28;20767;-78
2023/04/06 07:37:11;;;;;;;11.40;8.30;;;;;;;14.05;31.51;99038.97;7055553;28;20209;-78
2023/04/06 07:40:33;;;;;;;13.10;8.67;;;;;;;14.28;31.05;99028.34;7054423;28;20199;-78
2023/04/06 07:43:55;;;;;;;11.07;8.63;;;;;;;14.13;30.78;99030.56;7054943;28;20233;-78
2023/04/06 07:47:17;;;;;;;9.20;7.97;;;;;;;14.40;30.88;99028.47;7055296;28;20683;-78
2023/04/06 07:50:40;;;;;;;15.07;8.57;;;;;;;14.84;30.78;99028.19;7053458;28;20590;-78
2023/04/06 07:54:01;;;;;;;9.90;7.80;;;;;;;14.91;30.32;99024.34;7059881;27;20615;-80
2023/04/06 07:57:23;;;;;;;10.80;8.43;;;;;;;15.23;29.17;99014.94;7062645;27;20213;-79
2023/04/06 08:00:45;;;;;;;8.83;7.90;;;;;;;15.80;28.54;99021.69;7053558;28;20237;-79
2023/04/06 08:04:06;;;;;;;9.33;8.33;;;;;;;15.23;29.66;99014.94;7055007;28;20237;-78
2023/04/06 08:07:29;;;;;;;10.33;8.70;;;;;;;16.00;28.11;99014.00;7082528;27;20233;-79
2023/04/06 08:10:51;;;;;;;9.53;8.47;;;;;;;15.37;28.99;99013.75;7082596;27;20202;-78
2023/04/06 08:14:12;;;;;;;9.70;8.47;;;;;;;16.41;27.84;99020.25;7082405;27;20238;-78
2023/04/06 08:17:34;;;;;;;8.97;7.77;;;;;;;14.59;30.74;98987.56;7082616;27;20226;-78
2023/04/06 08:20:56;;;;;;;9.50;8.30;;;;;;;14.31;31.06;99016.22;7082495;27;20238;-78
2023/04/06 08:24:19;;;;;;;10.30;8.40;;;;;;;13.37;32.11;99025.50;7083923;27;20234;-77
2023/04/06 08:27:41;;;;;;;9.43;8.13;;;;;;;12.33;34.17;99029.41;7064986;27;20214;-78
2023/04/06 08:31:05;;;;;;;9.63;8.50;;;;;;;13.78;32.99;99028.56;7068385;27;20205;-84
2023/04/06 08:34:26;;;;;;;12.37;8.40;;;;;;;14.14;31.27;99023.25;7065357;28;20310;-78
2023/04/06 08:37:49;;;;;;;10.33;8.43;;;;;;;14.21;30.86;99008.59;7078653;27;20206;-80
2023/04/06 08:41:14;;;;;;;8.17;7.13;;;;;;;14.14;31.97;99001.56;7086131;27;20663;-79
2023/04/06 08:44:35;;;;;;;11.17;8.47;;;;;;;14.66;30.34;99001.88;7086199;27;20218;-82
2023/04/06 08:47:58;;;;;;;11.47;8.50;;;;;;;15.10;29.93;99020.53;7098577;27;20580;-79
2023/04/06 08:51:20;;;;;;;11.37;8.40;;;;;;;15.76;29.68;99029.44;7073610;27;20256;-78
2023/04/06 08:54:42;;;;;;;84.73;69.17;;;;;;;16.05;29.51;99023.13;7057249;28;20225;-80
2023/04/06 08:58:08;;;;;;;11.40;8.17;;;;;;;16.71;28.41;99018.19;7079824;27;20206;-82
2023/04/06 09:01:30;;;;;;;10.03;8.30;;;;;;;16.48;28.23;99018.22;7075413;27;20284;-78
2023/04/06 09:04:54;;;;;;;11.23;8.63;;;;;;;16.83;28.19;99012.72;7082882;27;20336;-80
2023/04/06 09:08:16;;;;;;;12.43;8.83;;;;;;;16.13;27.11;98983.88;7082714;27;20258;-79
2023/04/06 09:11:45;;;;;;;10.83;8.70;;;;;;;17.65;25.79;98991.25;7081874;27;20219;-82
2023/04/06 09:15:19;;;;;;;8.97;8.07;;;;;;;17.97;26.33;98992.34;7081311;27;20230;-79
2023/04/06 09:18:41;;;;;;;10.87;8.47;;;;;;;18.42;25.21;98989.53;7079134;27;20192;-82
2023/04/06 09:22:04;;;;;;;10.70;8.37;;;;;;;18.21;25.35;98987.56;7078277;27;20790;-79
2023/04/06 09:25:26;;;;;;;10.50;8.77;;;;;;;18.72;24.06;98977.13;7079143;27;20279;-77
2023/04/06 09:28:49;;;;;;;9.07;8.00;;;;;;;18.72;24.52;98976.28;7081106;27;20224;-77
2023/04/06 09:32:19;;;;;;;11.67;8.60;;;;;;;18.37;24.46;98978.53;7047044;27;20552;-78
2023/04/06 09:35:50;;;;;;;10.43;8.53;;;;;;;18.75;24.65;98978.53;7011897;28;20242;-77
2023/04/06 09:39:14;;;;;;;12.33;9.63;;;;;;;18.29;24.79;98979.72;7017084;28;20227;-76
2023/04/06 09:42:36;;;;;;;11.13;8.73;;;;;;;19.24;23.94;98970.16;7019110;28;20366;-77
2023/04/06 09:45:58;;;;;;;10.63;9.37;;;;;;;19.54;23.17;98977.84;7019397;28;20201;-77
2023/04/06 09:49:21;;;;;;;10.07;8.93;;;;;;;19.45;23.32;98966.53;7020896;28;20362;-78
2023/04/06 09:52:48;;;;;;;9.33;8.27;;;;;;;19.68;22.65;98959.91;7003749;28;20221;-81
2023/04/06 09:56:13;;;;;;;9.53;7.57;;;;;;;19.38;23.47;98963.19;6998082;28;20246;-80
2023/04/06 09:59:40;;;;;;;10.23;8.47;;;;;;;19.14;19.53;98963.69;7018814;28;20189;-81
2023/04/06 10:03:08;;;;;;;8.00;7.20;;;;;;;19.73;19.69;98946.28;6997573;28;20226;-81
2023/04/06 10:06:35;;;;;;;7.87;6.63;;;;;;;18.85;20.26;98918.53;6999187;28;20201;-79
2023/04/06 10:09:56;;;;;;;7.90;7.10;;;;;;;19.36;20.16;98961.81;7012251;28;20228;-78
2023/04/06 10:13:19;;;;;;;8.57;7.53;;;;;;;18.18;20.83;98952.56;7018964;28;20304;-79
2023/04/06 10:16:41;;;;;;;10.60;7.50;;;;;;;18.58;21.33;98956.72;7018789;28;20205;-77
2023/04/06 10:20:07;;;;;;;9.23;7.30;;;;;;;17.82;21.33;98962.06;7018428;28;20212;-77
2023/04/06 10:23:32;;;;;;;6.73;5.93;;;;;;;18.38;19.77;98950.13;7017777;28;20232;-79
2023/04/06 10:27:01;;;;;;;7.03;6.03;;;;;;;18.21;20.39;98960.25;7018085;28;20209;-77
2023/04/06 10:30:23;;;;;;;7.73;6.80;;;;;;;17.38;21.13;98960.19;7016516;28;20232;-78
2023/04/06 10:33:54;;;;;;;10.57;7.30;;;;;;;18.60;21.21;98945.53;7018128;28;20251;-79
2023/04/06 10:37:18;;;;;;;8.83;7.70;;;;;;;20.33;19.12;98941.34;7016017;28;20209;-77
2023/04/06 10:40:44;;;;;;;9.87;6.73;;;;;;;20.27;19.56;98945.13;6989161;28;20538;-78
2023/04/06 10:44:06;;;;;;;7.10;6.40;;;;;;;20.21;19.03;98943.41;6971999;28;20242;-77
2023/04/06 10:47:27;;;;;;;9.03;7.67;;;;;;;19.95;20.01;98933.34;6972039;28;20666;-79
2023/04/06 10:50:49;;;;;;;8.17;6.93;;;;;;;19.94;20.14;98946.19;6970337;28;20226;-77
2023/04/06 10:54:13;;;;;;;9.10;7.97;;;;;;;18.85;20.16;98943.13;6971823;28;20231;-78
2023/04/06 10:57:36;;;;;;;8.30;6.97;;;;;;;19.03;20.37;98938.16;6984104;28;20301;-79
2023/04/06 11:00:59;;;;;;;9.77;7.47;;;;;;;18.15;21.30;98933.94;6970588;28;20209;-78
2023/04/06 11:04:21;;;;;;;17.97;7.60;;;;;;;17.51;21.32;98915.47;6981394;28;20248;-78
2023/04/06 11:07:43;;;;;;;8.30;6.27;;;;;;;17.92;21.48;98926.78;7000520;28;20267;-79
2023/04/06 11:11:06;;;;;;;11.10;7.20;;;;;;;18.05;21.03;98920.16;6999715;28;20237;-82
2023/04/06 11:14:29;;;;;;;6.80;6.10;;;;;;;17.08;21.53;98934.25;7000723;28;20225;-81
2023/04/06 11:17:50;;;;;;;8.83;6.53;;;;;;;17.63;20.87;98929.84;6999562;28;20213;-78
2023/04/06 11:21:12;;;;;;;8.27;6.40;;;;;;;17.35;20.73;98935.31;6998696;28;20221;-79
2023/04/06 11:24:34;;;;;;;6.97;5.57;;;;;;;18.79;19.36;98905.91;7000923;28;20226;-79
2023/04/06 11:27:55;;;;;;;6.87;5.40;;;;;;;19.15;18.96;98914.25;7002136;28;20213;-79
2023/04/06 11:31:18;;;;;;;6.20;5.23;;;;;;;18.79;19.45;98900.44;6999413;28;20264;-78
2023/04/06 11:34:41;;;;;;;8.30;5.97;;;;;;;17.34;20.17;98912.66;7001194;28;20762;-79
2023/04/06 11:38:04;;;;;;;7.03;5.57;;;;;;;18.20;19.67;98906.72;7000826;28;20213;-78
2023/04/06 11:41:29;;;;;;;7.60;6.53;;;;;;;18.45;20.04;98893.47;6997614;28;20209;-79
2023/04/06 11:44:52;;;;;;;8.10;5.47;;;;;;;19.89;19.44;98874.19;6997922;28;20363;-78
2023/04/06 11:48:22;;;;;;;6.80;6.10;;;;;;;20.53;18.33;98883.91;6998119;28;20205;-78
2023/04/06 11:51:44;;;;;;;6.93;5.83;;;;;;;20.23;17.11;98884.56;7000815;28;20228;-80
2023/04/06 11:55:13;;;;;;;5.80;4.90;;;;;;;19.04;17.62;98873.41;6998829;28;20307;-78
2023/04/06 11:58:35;;;;;;;6.70;5.17;;;;;;;18.27;18.61;98883.63;6997479;28;20205;-78
2023/04/06 12:01:57;;;;;;;5.30;4.23;;;;;;;19.78;17.14;98850.56;6996403;28;20213;-78
2023/04/06 12:05:21;;;;;;;5.93;4.20;;;;;;;21.01;14.84;98878.09;6997521;28;20228;-78
2023/04/06 12:08:42;;;;;;;4.07;3.47;;;;;;;20.70;14.69;98860.69;6997624;28;20211;-80
2023/04/06 12:12:04;;;;;;;5.07;4.53;;;;;;;18.26;17.70;98873.81;6997322;28;20238;-78
2023/04/06 12:15:25;;;;;;;5.23;4.43;;;;;;;18.09;17.89;98863.97;6999048;28;20233;-78
2023/04/06 12:18:47;;;;;;;5.00;4.40;;;;;;;18.08;17.25;98870.53;6997963;28;20213;-79
2023/04/06 12:22:10;;;;;;;8.60;5.60;;;;;;;19.29;18.88;98857.28;6996412;28;20614;-79
2023/04/06 12:25:32;;;;;;;6.70;6.10;;;;;;;19.73;18.80;98862.31;6997073;28;20602;-79
2023/04/06 12:28:53;;;;;;;7.77;5.43;;;;;;;19.30;18.27;98848.84;6996764;28;20213;-81
2023/04/06 12:32:15;;;;;;;6.30;5.70;;;;;;;19.96;18.27;98842.78;6999558;28;20227;-80
2023/04/06 12:35:37;;;;;;;7.80;6.47;;;;;;;19.44;18.35;98862.88;6999493;28;20234;-79
2023/04/06 12:39:01;;;;;;;9.50;5.53;;;;;;;19.41;18.84;98844.28;6988606;28;20213;-78
2023/04/06 12:42:23;;;;;;;9.03;5.80;;;;;;;19.84;18.41;98857.72;6987437;28;20206;-80
2023/04/06 12:45:45;;;;;;;6.13;5.53;;;;;;;20.14;18.13;98847.00;6997354;28;20338;-78
2023/04/06 12:49:07;;;;;;;5.40;4.90;;;;;;;19.79;17.66;98854.97;6996571;28;20209;-80
2023/04/06 12:52:31;;;;;;;7.97;5.57;;;;;;;19.53;17.89;98842.19;6989238;28;20234;-79
2023/04/06 12:55:55;;;;;;;14.57;6.63;;;;;;;20.69;16.93;98836.31;6996519;28;20203;-79
2023/04/06 12:59:17;;;;;;;6.97;5.33;;;;;;;19.23;17.98;98831.81;6995266;28;20214;-79
2023/04/06 13:02:38;;;;;;;6.67;5.10;;;;;;;19.57;17.38;98824.19;6969093;28;20232;-79
2023/04/06 13:06:00;;;;;;;6.00;5.40;;;;;;;20.18;17.57;98832.53;6968843;28;20195;-79
2023/04/06 13:09:22;;;;;;;7.00;5.13;;;;;;;20.05;17.00;98827.50;6993683;28;20208;-79
2023/04/06 13:12:45;;;;;;;5.53;4.87;;;;;;;20.30;16.68;98826.84;6993189;28;20694;-79
2023/04/06 13:16:09;;;;;;;5.50;4.87;;;;;;;18.70;17.51;98831.78;6995521;28;20218;-78
2023/04/06 13:19:31;;;;;;;6.07;5.27;;;;;;;17.92;18.13;98828.56;6995043;28;20756;-78
2023/04/06 13:22:52;;;;;;;7.33;5.03;;;;;;;18.97;17.87;98820.84;6995535;28;20687;-79
2023/04/06 13:26:16;;;;;;;5.30;4.80;;;;;;;19.09;16.91;98819.63;6995719;28;20268;-79
2023/04/06 13:29:39;;;;;;;5.47;4.97;;;;;;;18.99;17.13;98813.25;6995184;28;20245;-79
2023/04/06 13:33:02;;;;;;;6.10;4.67;;;;;;;17.29;18.42;98819.91;6994775;28;20228;-79
2023/04/06 13:36:23;;;;;;;7.03;5.03;;;;;;;18.21;17.75;98808.22;6985793;28;20682;-79
2023/04/06 13:39:45;;;;;;;5.37;4.87;;;;;;;18.63;17.54;98812.03;6996171;28;20198;-79
2023/04/06 13:43:07;;;;;;;5.43;4.90;;;;;;;19.61;16.75;98801.50;6994048;28;20222;-79
2023/04/06 13:46:30;;;;;;;7.77;5.13;;;;;;;19.14;16.92;98799.69;6999139;28;20209;-79
2023/04/06 13:49:52;;;;;;;5.37;4.83;;;;;;;19.52;17.00;98769.44;6998950;28;20233;-80
2023/04/06 13:53:14;;;;;;;5.87;4.63;;;;;;;19.95;17.63;98805.56;7015706;28;20308;-80
2023/04/06 13:56:35;;;;;;;6.77;5.30;;;;;;;19.60;17.09;98799.03;6991869;28;20217;-81
2023/04/06 13:59:57;;;;;;;6.03;4.80;;;;;;;19.68;16.92;98798.50;6995508;28;21341;-81
2023/04/06 14:03:20;;;;;;;5.70;4.83;;;;;;;19.87;16.89;98788.81;6996087;28;20267;-84
2023/04/06 14:06:42;;;;;;;6.50;5.03;;;;;;;20.25;17.45;98783.84;6978681;28;20207;-82
2023/04/06 14:10:04;;;;;;;7.30;5.00;;;;;;;20.21;16.90;98766.28;6974766;28;20717;-78
2023/04/06 14:13:26;;;;;;;8.30;5.30;;;;;;;19.86;17.37;98787.16;6985997;28;20214;-82
2023/04/06 14:16:47;;;;;;;6.10;4.53;;;;;;;18.98;18.35;98637.53;7001949;28;20218;-81
2023/04/06 14:20:13;;;;;;;5.40;4.90;;;;;;;19.72;17.82;98772.28;7004698;28;20348;-78
2023/04/06 14:23:35;;;;;;;5.23;4.60;;;;;;;19.80;17.79;98767.16;7005945;28;20675;-82
2023/04/06 14:26:56;;;;;;;6.17;4.87;;;;;;;20.37;17.41;98775.38;6995623;28;20203;-81
2023/04/06 14:30:18;;;;;;;5.57;4.50;;;;;;;19.46;17.34;98746.69;6975258;28;20225;-80
2023/04/06 14:33:40;;;;;;;5.80;4.57;;;;;;;19.55;17.52;98763.41;6976241;28;20295;-80
2023/04/06 14:37:03;;;;;;;5.63;4.73;;;;;;;20.15;17.19;98782.94;7003427;28;20265;-81
2023/04/06 14:40:24;;;;;;;14.53;5.17;;;;;;;18.65;18.44;98766.19;7002771;28;20298;-83
2023/04/06 14:43:46;;;;;;;6.73;4.90;;;;;;;20.21;17.86;98781.88;6998567;28;20347;-80
2023/04/06 14:47:08;;;;;;;5.53;5.03;;;;;;;19.96;17.42;98768.88;7001945;28;20783;-82
2023/04/06 14:50:30;;;;;;;5.80;4.93;;;;;;;20.38;16.79;98772.38;7001671;28;20321;-79
2023/04/06 14:53:52;;;;;;;7.60;5.20;;;;;;;20.57;16.70;98764.50;6992736;28;20601;-80
2023/04/06 14:57:14;;;;;;;5.63;5.10;;;;;;;20.35;16.51;98737.31;7000719;28;20204;-80
2023/04/06 15:00:37;;;;;;;6.43;4.60;;;;;;;19.16;17.91;98765.56;7000859;28;20201;-79
2023/04/06 15:03:59;;;;;;;6.70;5.43;;;;;;;19.99;16.89;98762.06;6973630;28;20321;-80
2023/04/06 15:07:20;;;;;;;6.13;4.33;;;;;;;19.83;17.49;98771.28;6974477;28;20277;-79
2023/04/06 15:10:43;;;;;;;5.53;4.87;;;;;;;20.48;17.20;98766.94;6999879;28;20287;-80
2023/04/06 15:14:06;;;;;;;6.10;4.70;;;;;;;19.76;17.29;98757.00;7001406;28;20699;-79
2023/04/06 15:17:28;;;;;;;5.53;5.00;;;;;;;19.21;17.12;98759.38;7006646;28;20210;-79
2023/04/06 15:20:50;;;;;;;5.77;5.17;;;;;;;19.19;18.20;98759.59;6992409;28;20337;-79
2023/04/06 15:24:11;;;;;;;5.93;4.87;;;;;;;18.94;17.49;98759.38;6973321;28;20236;-79
2023/04/06 15:27:34;;;;;;;6.63;5.10;;;;;;;18.46;18.19;98767.59;6989652;28;20266;-79
2023/04/06 15:30:57;;;;;;;5.83;5.23;;;;;;;18.70;18.09;98760.75;6994487;28;20221;-79
2023/04/06 15:34:18;;;;;;;5.83;5.20;;;;;;;18.32;18.27;98746.41;6979818;28;20222;-79
2023/04/06 15:37:40;;;;;;;5.87;5.10;;;;;;;19.05;17.94;98757.56;6977523;28;20195;-79
2023/04/06 15:41:02;;;;;;;6.67;5.10;;;;;;;19.09;18.70;98767.69;6990400;28;20684;-81
2023/04/06 15:44:25;;;;;;;6.43;5.63;;;;;;;19.06;17.97;98751.00;6979376;28;20275;-79
2023/04/06 15:47:47;;;;;;;7.90;5.40;;;;;;;18.18;18.73;98748.72;6998037;28;20698;-79
2023/04/06 15:51:09;;;;;;;5.63;5.00;;;;;;;18.90;18.63;98763.72;6997030;28;20237;-79